Terminal Aerodrome Forecast
Issued by NWS

Home | Current Version | Previous Version | Text Only | Print | Product List | Glossary On
Versions: 1 2 3 4 5 6 7 8 9 10 11 12 13 14 15
595
FTUS42 KFFC 121139
TAFRYY
TAF
KRYY 121139Z 1212/1312 00000KT P6SM SCT060 BKN120
     FM121300 00000KT P6SM BKN050 BKN120
     FM121500 VRB03KT P6SM BKN035
     FM121800 27006KT P6SM SCT045
     FM122100 28010G18KT P6SM FEW050
     FM130400 31011G20KT P6SM SKC=

USA.gov is the U.S. government's official web portal to all federal, state and local government web resources and services.